Time;durP1;ratioP1;P1;durP2;ratioP2;P2;SDS_P1;SDS_P2;PMS_P1;PMS_P2;Temp;Humidity;BMP_temperature;BMP_pressure;BME280_temperature;BME280_humidity;BME280_pressure;Samples;Min_cycle;Max_cycle;Signal;HPM_P1;HPM_P2
2023/03/25 00:01:12;;;;;;;5.83;1.80;;;9.80;99.90;;;;;;5074729;28;20168;-75
2023/03/25 00:03:41;;;;;;;4.67;1.50;;;9.80;99.90;;;;;;5075106;28;20195;-75
2023/03/25 00:06:09;;;;;;;2.73;1.70;;;9.80;99.90;;;;;;5074878;28;20172;-75
2023/03/25 00:08:36;;;;;;;3.00;1.73;;;9.80;99.90;;;;;;5075001;28;20169;-75
2023/03/25 00:11:07;;;;;;;5.53;1.50;;;9.80;99.90;;;;;;5074760;28;20254;-75
2023/03/25 00:13:33;;;;;;;3.50;1.50;;;9.70;99.90;;;;;;5056868;28;20578;-75
2023/03/25 00:15:59;;;;;;;5.80;1.50;;;9.80;99.90;;;;;;5074710;28;20168;-75
2023/03/25 00:18:32;;;;;;;4.80;1.47;;;9.80;99.90;;;;;;5054751;28;20184;-75
2023/03/25 00:21:00;;;;;;;4.43;1.50;;;9.70;99.90;;;;;;5054487;28;20311;-75
2023/03/25 00:23:27;;;;;;;2.00;1.30;;;9.70;99.90;;;;;;5054590;28;20204;-75
2023/03/25 00:25:55;;;;;;;4.87;1.70;;;9.70;99.90;;;;;;5054445;28;20177;-76
2023/03/25 00:28:20;;;;;;;3.60;1.20;;;9.60;99.90;;;;;;5054170;28;20632;-75
2023/03/25 00:30:46;;;;;;;3.07;1.50;;;9.70;99.90;;;;;;5054341;28;20219;-75
2023/03/25 00:33:12;;;;;;;3.33;1.50;;;9.60;99.90;;;;;;5054369;28;20539;-75
2023/03/25 00:35:43;;;;;;;3.97;1.87;;;9.60;99.90;;;;;;5054485;28;20173;-75
2023/03/25 00:38:10;;;;;;;2.13;1.20;;;9.60;99.90;;;;;;5054300;28;20177;-75
2023/03/25 00:40:36;;;;;;;4.50;2.03;;;9.60;99.90;;;;;;5054455;28;20180;-74
2023/03/25 00:43:04;;;;;;;3.73;1.53;;;9.50;99.90;;;;;;5053741;28;20192;-75
2023/03/25 00:45:30;;;;;;;6.70;1.70;;;9.60;99.90;;;;;;5054213;28;20219;-75
2023/03/25 00:47:56;;;;;;;6.10;1.57;;;9.60;99.90;;;;;;5054096;28;20177;-75
2023/03/25 00:50:22;;;;;;;7.03;1.97;;;9.60;99.90;;;;;;5054047;28;20165;-76
2023/03/25 00:52:48;;;;;;;6.33;1.87;;;9.60;99.90;;;;;;5054003;28;20678;-74
2023/03/25 00:55:13;;;;;;;5.67;1.80;;;9.60;99.90;;;;;;5053824;28;20525;-75
2023/03/25 00:57:39;;;;;;;9.23;1.90;;;9.70;99.90;;;;;;5053688;28;20655;-75
2023/03/25 01:00:08;;;;;;;3.30;1.60;;;9.70;99.90;;;;;;5053782;28;20169;-75
2023/03/25 01:02:34;;;;;;;5.83;2.40;;;9.80;99.90;;;;;;5053842;28;20218;-73
2023/03/25 01:05:00;;;;;;;2.97;1.67;;;9.70;99.90;;;;;;5053771;28;20185;-75
2023/03/25 01:07:28;;;;;;;7.03;1.90;;;9.70;99.90;;;;;;5053638;28;20248;-75
2023/03/25 01:09:55;;;;;;;5.87;1.83;;;9.80;99.90;;;;;;5053810;28;20269;-76
2023/03/25 01:12:21;;;;;;;5.33;1.97;;;9.70;99.90;;;;;;5053417;28;20212;-75
2023/03/25 01:14:47;;;;;;;3.70;1.90;;;9.70;99.90;;;;;;5053497;28;20166;-74
2023/03/25 01:17:13;;;;;;;3.90;1.77;;;9.70;99.90;;;;;;5063481;28;20216;-75
2023/03/25 01:19:39;;;;;;;8.77;2.17;;;9.70;99.90;;;;;;5073338;28;20655;-74
2023/03/25 01:22:05;;;;;;;5.00;2.03;;;9.70;99.90;;;;;;5073463;28;20562;-74
2023/03/25 01:24:30;;;;;;;5.00;1.90;;;9.70;99.90;;;;;;5073498;28;20185;-75
2023/03/25 01:26:56;;;;;;;6.60;1.87;;;9.70;99.90;;;;;;5073132;28;20185;-75
2023/03/25 01:29:22;;;;;;;4.90;1.60;;;9.70;99.90;;;;;;5073424;28;20168;-75
2023/03/25 01:31:48;;;;;;;4.47;1.73;;;9.60;99.90;;;;;;5072766;28;20258;-75
2023/03/25 01:34:14;;;;;;;5.87;1.83;;;9.60;99.90;;;;;;5073149;28;20165;-75
2023/03/25 01:36:45;;;;;;;5.40;1.80;;;9.60;99.90;;;;;;5073238;28;20180;-75
2023/03/25 01:39:15;;;;;;;4.50;2.10;;;9.60;99.90;;;;;;5073301;28;20183;-74
2023/03/25 01:41:42;;;;;;;6.47;1.87;;;9.60;99.90;;;;;;5073136;28;20173;-74
2023/03/25 01:44:29;;;;;;;5.87;2.40;;;9.60;99.90;;;;;;5073111;28;20172;-75
2023/03/25 01:47:00;;;;;;;4.17;1.83;;;9.60;99.90;;;;;;5072929;28;20200;-75
2023/03/25 01:49:37;;;;;;;6.23;1.93;;;9.60;99.90;;;;;;5073159;28;20255;-75
2023/03/25 01:52:05;;;;;;;4.70;2.03;;;9.50;99.90;;;;;;5073089;28;20208;-75
2023/03/25 01:54:31;;;;;;;3.83;1.80;;;9.50;99.90;;;;;;5072964;28;20165;-75
2023/03/25 01:56:57;;;;;;;5.50;2.00;;;9.50;99.90;;;;;;5072766;28;20185;-73
2023/03/25 01:59:27;;;;;;;9.13;2.00;;;9.40;99.90;;;;;;5072807;28;20191;-75
2023/03/25 02:01:55;;;;;;;3.13;1.77;;;9.40;99.90;;;;;;5073019;28;20255;-74
2023/03/25 02:04:37;;;;;;;6.57;2.10;;;9.40;99.90;;;;;;5073113;28;20187;-74
2023/03/25 02:07:07;;;;;;;4.73;1.70;;;9.50;99.90;;;;;;5073043;28;20177;-74
2023/03/25 02:09:33;;;;;;;4.90;1.77;;;9.50;99.90;;;;;;5072786;28;20206;-75
2023/03/25 02:11:59;;;;;;;5.23;1.80;;;9.50;99.90;;;;;;5072910;28;20212;-74
2023/03/25 02:14:30;;;;;;;5.37;1.83;;;9.50;99.90;;;;;;5072907;28;20681;-74
2023/03/25 02:17:08;;;;;;;6.10;1.80;;;9.40;99.90;;;;;;5072653;28;20220;-74
2023/03/25 02:20:08;;;;;;;4.90;1.83;;;9.40;99.90;;;;;;5073040;28;20165;-75
2023/03/25 02:22:58;;;;;;;2.87;1.53;;;9.50;99.90;;;;;;5072735;28;20184;-75
2023/03/25 02:25:44;;;;;;;6.43;2.03;;;9.50;99.90;;;;;;5072543;28;20175;-74
2023/03/25 02:28:24;;;;;;;3.97;1.60;;;9.50;99.90;;;;;;5072878;28;20181;-76
2023/03/25 02:31:34;;;;;;;5.30;1.80;;;9.50;99.90;;;;;;5072645;28;20663;-75
2023/03/25 02:34:30;;;;;;;3.17;1.60;;;9.40;99.90;;;;;;5072813;28;20257;-75
2023/03/25 02:37:35;;;;;;;7.67;1.73;;;9.40;99.90;;;;;;5072505;28;20243;-75
2023/03/25 02:40:13;;;;;;;5.50;1.70;;;9.40;99.90;;;;;;5072399;28;20172;-75
2023/03/25 02:42:48;;;;;;;6.13;1.83;;;9.40;99.90;;;;;;5072922;28;20176;-74
2023/03/25 02:45:37;;;;;;;3.13;1.60;;;9.40;99.90;;;;;;5076356;28;20213;-75
2023/03/25 02:48:10;;;;;;;6.10;1.87;;;9.40;99.90;;;;;;5076343;28;20196;-75
2023/03/25 02:50:52;;;;;;;6.63;2.00;;;9.40;99.90;;;;;;5076376;28;20165;-75
2023/03/25 02:53:34;;;;;;;3.30;1.33;;;9.30;99.90;;;;;;5076101;28;20176;-74
2023/03/25 02:56:05;;;;;;;7.13;1.77;;;9.30;99.90;;;;;;5076310;28;20184;-74
2023/03/25 02:58:32;;;;;;;5.20;1.63;;;9.30;99.90;;;;;;5076282;28;20188;-74
2023/03/25 03:00:57;;;;;;;6.43;2.17;;;9.30;99.90;;;;;;5076259;28;20248;-75
2023/03/25 03:03:25;;;;;;;7.23;1.77;;;9.20;99.90;;;;;;5076487;28;20199;-75
2023/03/25 03:05:54;;;;;;;6.20;2.03;;;9.20;99.90;;;;;;5076075;28;20218;-75
2023/03/25 03:08:47;;;;;;;7.13;1.80;;;9.20;99.90;;;;;;5075688;28;20250;-74
2023/03/25 03:11:45;;;;;;;4.87;1.87;;;9.10;99.90;;;;;;5075846;28;20296;-74
2023/03/25 03:14:35;;;;;;;7.40;1.77;;;9.20;99.90;;;;;;5075884;28;20165;-74
2023/03/25 03:17:10;;;;;;;8.53;2.00;;;9.20;99.90;;;;;;5075702;28;20213;-74
2023/03/25 03:19:55;;;;;;;5.17;1.60;;;9.20;99.90;;;;;;5075693;28;20255;-74
2023/03/25 03:22:42;;;;;;;5.53;1.53;;;9.20;99.90;;;;;;5075510;28;20173;-75
2023/03/25 03:25:29;;;;;;;6.60;1.93;;;9.20;99.90;;;;;;5075587;28;20176;-74
2023/03/25 03:28:00;;;;;;;11.87;1.97;;;9.20;99.90;;;;;;5075678;28;20204;-73
2023/03/25 03:30:31;;;;;;;7.20;1.77;;;9.10;99.90;;;;;;5075701;28;20183;-74
2023/03/25 03:33:15;;;;;;;7.10;1.90;;;9.10;99.90;;;;;;5075588;28;20188;-73
2023/03/25 03:36:16;;;;;;;7.90;2.50;;;9.00;99.90;;;;;;5075393;28;20169;-75
2023/03/25 03:38:54;;;;;;;5.57;2.07;;;9.00;99.90;;;;;;5033140;28;20269;-74
2023/03/25 03:41:25;;;;;;;7.07;2.00;;;9.00;99.90;;;;;;5033360;28;20649;-74
2023/03/25 03:44:01;;;;;;;9.80;2.20;;;8.90;99.90;;;;;;5033463;28;20720;-74
2023/03/25 03:46:29;;;;;;;8.23;2.57;;;8.80;99.90;;;;;;5016874;28;20173;-73
2023/03/25 03:48:57;;;;;;;10.83;3.07;;;8.80;99.90;;;;;;5033177;28;20264;-74
2023/03/25 03:51:33;;;;;;;8.53;2.20;;;8.70;99.90;;;;;;5032644;28;20225;-74
2023/03/25 03:54:07;;;;;;;7.70;2.10;;;8.70;99.90;;;;;;5032805;28;20182;-73
2023/03/25 03:56:45;;;;;;;8.80;2.10;;;8.70;99.90;;;;;;5032344;28;20283;-75
2023/03/25 03:59:22;;;;;;;9.27;2.33;;;8.70;99.90;;;;;;5033144;28;20267;-75
2023/03/25 04:01:53;;;;;;;11.33;2.40;;;8.70;99.90;;;;;;5033232;28;20177;-74
2023/03/25 04:04:25;;;;;;;8.60;2.40;;;8.80;99.90;;;;;;5032729;28;20174;-74
2023/03/25 04:07:00;;;;;;;9.73;2.47;;;8.80;99.90;;;;;;5032696;28;20173;-75
2023/03/25 04:09:55;;;;;;;13.10;2.77;;;8.70;99.90;;;;;;5032773;28;20737;-74
2023/03/25 04:12:26;;;;;;;9.73;2.27;;;8.70;99.90;;;;;;5032481;28;20267;-74
2023/03/25 04:14:54;;;;;;;9.73;2.60;;;8.60;99.90;;;;;;5064065;28;20188;-74
2023/03/25 04:17:20;;;;;;;9.37;2.10;;;8.60;99.90;;;;;;5074082;28;20263;-74
2023/03/25 04:19:47;;;;;;;8.33;2.47;;;8.70;99.90;;;;;;5074306;28;20642;-74
2023/03/25 04:22:17;;;;;;;12.20;2.63;;;8.70;99.90;;;;;;5074011;28;20173;-75
2023/03/25 04:24:42;;;;;;;8.73;2.70;;;8.70;99.90;;;;;;5074330;28;20647;-75
2023/03/25 04:27:12;;;;;;;11.00;2.90;;;8.70;99.90;;;;;;5074725;28;20176;-74
2023/03/25 04:29:39;;;;;;;10.07;2.77;;;8.70;99.90;;;;;;5074379;28;20196;-75
2023/03/25 04:32:05;;;;;;;10.90;2.60;;;8.70;99.90;;;;;;5073812;28;20212;-74
2023/03/25 04:34:31;;;;;;;9.77;2.77;;;8.80;99.90;;;;;;5073711;28;20172;-74
2023/03/25 04:36:57;;;;;;;9.73;2.63;;;8.70;99.90;;;;;;5074176;28;20176;-73
2023/03/25 04:39:23;;;;;;;8.63;2.47;;;8.80;99.90;;;;;;5055895;28;20226;-74
2023/03/25 04:42:02;;;;;;;10.80;2.73;;;8.70;99.90;;;;;;5073720;28;20612;-74
2023/03/25 04:44:32;;;;;;;9.97;2.50;;;8.70;99.90;;;;;;5074248;28;20197;-74
2023/03/25 04:46:59;;;;;;;10.53;3.07;;;8.70;99.90;;;;;;5074064;28;20643;-75
2023/03/25 04:49:25;;;;;;;9.63;2.50;;;8.70;99.90;;;;;;5073136;28;20176;-74
2023/03/25 04:51:52;;;;;;;9.03;2.47;;;8.70;99.90;;;;;;5073913;28;20200;-74
2023/03/25 04:54:19;;;;;;;7.53;2.60;;;8.80;99.90;;;;;;5073519;28;20181;-74
2023/03/25 04:56:49;;;;;;;9.43;2.37;;;8.80;99.90;;;;;;5073929;28;20603;-74
2023/03/25 04:59:16;;;;;;;8.50;2.40;;;8.80;99.90;;;;;;5073851;28;20632;-75
2023/03/25 05:01:44;;;;;;;9.37;2.43;;;8.80;99.90;;;;;;5073872;28;20209;-75
2023/03/25 05:04:12;;;;;;;7.17;2.43;;;8.90;99.90;;;;;;5073100;28;20164;-74
2023/03/25 05:06:44;;;;;;;8.63;2.40;;;8.80;99.90;;;;;;5072067;28;20510;-74
2023/03/25 05:09:13;;;;;;;7.03;2.03;;;8.90;99.90;;;;;;5073728;28;20175;-74
2023/03/25 05:11:40;;;;;;;8.53;2.17;;;8.90;99.90;;;;;;5073386;28;20200;-74
2023/03/25 05:14:07;;;;;;;8.80;2.33;;;8.90;99.90;;;;;;5073513;28;20179;-74
2023/03/25 05:16:33;;;;;;;8.93;2.40;;;8.90;99.90;;;;;;5073182;28;20569;-74
2023/03/25 05:18:59;;;;;;;7.13;2.17;;;8.90;99.90;;;;;;5073283;28;20172;-75
2023/03/25 05:21:25;;;;;;;5.60;2.00;;;8.90;99.90;;;;;;5072963;28;20682;-75
2023/03/25 05:23:51;;;;;;;4.97;2.00;;;8.90;99.90;;;;;;5073312;28;20682;-76
2023/03/25 05:26:18;;;;;;;7.73;2.30;;;8.90;99.90;;;;;;5073330;28;20165;-74
2023/03/25 05:28:43;;;;;;;7.07;2.20;;;8.90;99.90;;;;;;5073015;28;20176;-75
2023/03/25 05:31:09;;;;;;;11.17;2.23;;;9.00;99.90;;;;;;5073291;28;20201;-74
2023/03/25 05:33:41;;;;;;;9.10;2.20;;;9.00;99.90;;;;;;5072767;28;20160;-74
2023/03/25 05:36:11;;;;;;;7.97;2.33;;;9.00;99.90;;;;;;5072865;28;20620;-74
2023/03/25 05:38:40;;;;;;;8.23;2.60;;;9.00;99.90;;;;;;5073308;28;20264;-74
2023/03/25 05:41:09;;;;;;;6.87;2.23;;;9.10;99.90;;;;;;5073076;28;20176;-75
2023/03/25 05:43:36;;;;;;;9.90;2.37;;;9.10;99.90;;;;;;5073047;28;20168;-76
2023/03/25 05:46:04;;;;;;;5.57;2.03;;;9.20;99.90;;;;;;5072924;28;20177;-74
2023/03/25 05:48:31;;;;;;;6.57;2.30;;;9.20;99.90;;;;;;5072653;28;20230;-74
2023/03/25 05:51:02;;;;;;;8.30;1.93;;;9.10;99.90;;;;;;5072540;28;20211;-75
2023/03/25 05:53:29;;;;;;;12.70;2.47;;;9.20;99.90;;;;;;5073046;28;20513;-75
2023/03/25 05:55:55;;;;;;;9.03;2.37;;;9.20;99.90;;;;;;5072785;28;20203;-74
2023/03/25 05:58:21;;;;;;;15.80;2.97;;;9.10;99.90;;;;;;5072791;28;20172;-75
2023/03/25 06:00:47;;;;;;;10.17;2.50;;;9.20;99.90;;;;;;5073023;28;20628;-75
2023/03/25 06:03:13;;;;;;;8.30;2.20;;;9.20;99.90;;;;;;5072460;28;20180;-75
2023/03/25 06:05:40;;;;;;;10.00;2.83;;;9.10;99.90;;;;;;5072618;28;20505;-75
2023/03/25 06:08:06;;;;;;;5.53;2.13;;;9.10;99.90;;;;;;5072467;28;20564;-75
2023/03/25 06:10:32;;;;;;;14.07;2.90;;;9.10;99.90;;;;;;5072528;28;20207;-75
2023/03/25 06:12:57;;;;;;;12.47;2.80;;;9.00;99.90;;;;;;5072711;28;20216;-74
2023/03/25 06:15:32;;;;;;;7.97;2.43;;;9.00;99.90;;;;;;5072886;28;20689;-75
2023/03/25 06:17:58;;;;;;;9.30;2.40;;;9.00;99.90;;;;;;5072779;28;20223;-75
2023/03/25 06:20:25;;;;;;;6.17;2.17;;;9.10;99.90;;;;;;5076842;28;20192;-75
2023/03/25 06:22:50;;;;;;;8.30;2.73;;;9.20;99.90;;;;;;5076751;28;20176;-75
2023/03/25 06:25:19;;;;;;;6.97;2.10;;;9.40;99.90;;;;;;5076658;28;20176;-76
2023/03/25 06:27:47;;;;;;;7.97;2.87;;;9.80;99.90;;;;;;5058279;28;20570;-77
2023/03/25 06:30:18;;;;;;;6.73;2.40;;;10.30;99.90;;;;;;5076655;28;20169;-77
2023/03/25 06:32:45;;;;;;;13.60;2.43;;;10.70;99.90;;;;;;5076769;28;20737;-77
2023/03/25 06:35:11;;;;;;;9.37;2.47;;;10.80;99.90;;;;;;5077154;28;20177;-78
2023/03/25 06:37:37;;;;;;;5.67;2.27;;;10.90;99.90;;;;;;5076548;28;20183;-77
2023/03/25 06:40:05;;;;;;;7.93;1.93;;;10.70;99.90;;;;;;5076062;28;20612;-77
2023/03/25 06:42:32;;;;;;;6.83;2.30;;;10.40;99.90;;;;;;5076336;28;20164;-76
2023/03/25 06:44:58;;;;;;;10.00;2.00;;;10.40;99.90;;;;;;5075767;28;20179;-76
2023/03/25 06:47:24;;;;;;;4.90;1.97;;;10.20;99.90;;;;;;5076537;28;20210;-76
2023/03/25 06:49:49;;;;;;;7.67;2.07;;;10.00;99.90;;;;;;5077051;28;20172;-76
2023/03/25 06:52:15;;;;;;;6.10;2.07;;;10.00;99.90;;;;;;5058204;28;20222;-76
2023/03/25 06:54:41;;;;;;;6.30;1.93;;;9.90;99.90;;;;;;5075937;28;20169;-75
2023/03/25 06:57:07;;;;;;;8.90;2.50;;;10.00;99.90;;;;;;5076465;28;20280;-76
2023/03/25 06:59:33;;;;;;;8.77;2.20;;;10.10;99.90;;;;;;5076564;28;20177;-78
2023/03/25 07:01:58;;;;;;;7.23;2.00;;;10.70;99.90;;;;;;5076976;28;20631;-76
2023/03/25 07:04:24;;;;;;;11.67;2.40;;;11.40;99.90;;;;;;5076229;28;20164;-77
2023/03/25 07:06:50;;;;;;;11.47;2.17;;;12.10;1.00;;;;;;5075987;28;20512;-77
2023/03/25 07:09:16;;;;;;;7.13;2.27;;;12.00;1.00;;;;;;5075940;28;20172;-76
2023/03/25 07:11:42;;;;;;;10.57;2.63;;;11.60;11.70;;;;;;5076041;28;20216;-76
2023/03/25 07:14:08;;;;;;;11.93;2.53;;;11.50;14.00;;;;;;5057653;28;20176;-76
2023/03/25 07:16:33;;;;;;;9.83;2.80;;;11.80;19.60;;;;;;5075605;28;20232;-77
2023/03/25 07:18:59;;;;;;;9.17;2.43;;;12.00;1.00;;;;;;5075942;28;20168;-77
2023/03/25 07:21:25;;;;;;;9.77;2.73;;;11.80;5.50;;;;;;5075755;28;20169;-77
2023/03/25 07:23:51;;;;;;;12.27;2.80;;;11.50;13.90;;;;;;5075703;28;20252;-77
2023/03/25 07:26:17;;;;;;;33.27;9.13;;;11.30;22.10;;;;;;5075771;28;20194;-77
2023/03/25 07:28:43;;;;;;;21.50;7.00;;;11.20;30.00;;;;;;5074677;28;20659;-79
2023/03/25 07:31:11;;;;;;;13.87;3.10;;;11.60;24.40;;;;;;5074202;28;20227;-78
2023/03/25 07:33:37;;;;;;;13.00;3.70;;;12.30;5.10;;;;;;5075718;28;20176;-78
2023/03/25 07:36:04;;;;;;;14.40;2.63;;;12.90;1.00;;;;;;5075092;28;20536;-78
2023/03/25 07:38:30;;;;;;;14.33;3.53;;;13.00;1.00;;;;;;5075103;28;20204;-78
2023/03/25 07:40:56;;;;;;;11.63;3.53;;;12.60;1.00;;;;;;5057010;28;20602;-79
2023/03/25 07:43:21;;;;;;;9.80;2.90;;;12.40;1.00;;;;;;5075062;28;20204;-78
2023/03/25 07:45:47;;;;;;;13.30;3.30;;;12.20;1.00;;;;;;5075532;28;20176;-78
2023/03/25 07:48:15;;;;;;;8.67;2.67;;;11.90;4.70;;;;;;5074996;28;20279;-80
2023/03/25 07:50:44;;;;;;;7.77;2.60;;;11.90;9.90;;;;;;5075482;28;20176;-78
2023/03/25 07:53:10;;;;;;;13.77;3.17;;;11.80;17.50;;;;;;5056930;28;20188;-78
2023/03/25 07:55:36;;;;;;;12.00;2.97;;;11.80;12.70;;;;;;5076311;28;20651;-78
2023/03/25 07:58:01;;;;;;;12.37;3.23;;;11.80;13.20;;;;;;5075905;28;20180;-77
2023/03/25 08:00:33;;;;;;;10.57;2.40;;;11.60;23.00;;;;;;5075138;28;20172;-77
2023/03/25 08:03:02;;;;;;;10.63;2.63;;;11.50;27.70;;;;;;5075532;28;20173;-78
2023/03/25 08:05:28;;;;;;;12.97;2.70;;;11.30;27.60;;;;;;5074714;28;20517;-77
2023/03/25 08:07:54;;;;;;;13.43;3.23;;;11.30;28.40;;;;;;5075255;28;20230;-76
2023/03/25 08:10:20;;;;;;;12.23;3.20;;;11.30;40.50;;;;;;5074107;28;20175;-76
2023/03/25 08:12:46;;;;;;;13.70;2.87;;;11.00;61.00;;;;;;5073840;28;20216;-76
2023/03/25 08:15:12;;;;;;;11.37;3.20;;;10.80;64.50;;;;;;5074595;28;20176;-77
2023/03/25 08:17:38;;;;;;;10.40;3.23;;;11.00;63.50;;;;;;5053649;28;20240;-77
2023/03/25 08:20:05;;;;;;;9.53;2.90;;;11.10;46.20;;;;;;5054896;28;20165;-78
2023/03/25 08:22:32;;;;;;;14.07;3.33;;;11.50;48.60;;;;;;5052852;28;20173;-79
2023/03/25 08:24:58;;;;;;;10.17;3.17;;;12.40;23.00;;;;;;5054145;28;20168;-78
2023/03/25 08:27:24;;;;;;;17.83;3.43;;;13.30;1.00;;;;;;5053887;28;20625;-78
2023/03/25 08:29:58;;;;;;;11.97;3.70;;;13.30;1.00;;;;;;5054320;28;20217;-78
2023/03/25 08:32:26;;;;;;;11.63;3.20;;;13.20;1.00;;;;;;5053721;28;20197;-80
2023/03/25 08:34:51;;;;;;;12.27;3.30;;;13.10;1.00;;;;;;5054548;28;20192;-78
2023/03/25 08:37:17;;;;;;;13.23;3.50;;;12.90;1.00;;;;;;5054086;28;20202;-79
2023/03/25 08:39:43;;;;;;;15.07;3.10;;;12.60;1.00;;;;;;5053849;28;20172;-79
2023/03/25 08:42:11;;;;;;;15.47;3.13;;;12.40;1.00;;;;;;5053633;28;20222;-80
2023/03/25 08:44:37;;;;;;;10.60;2.70;;;12.50;2.50;;;;;;5053920;28;20169;-79
2023/03/25 08:47:03;;;;;;;15.53;3.80;;;12.80;1.00;;;;;;5054306;28;20181;-79
2023/03/25 08:49:29;;;;;;;12.17;3.50;;;13.00;1.00;;;;;;5053874;28;20179;-78
2023/03/25 08:51:57;;;;;;;15.17;3.63;;;13.00;1.00;;;;;;5053507;28;20212;-78
2023/03/25 08:54:24;;;;;;;14.83;3.10;;;12.90;1.00;;;;;;5053729;28;20165;-78
2023/03/25 08:56:50;;;;;;;10.10;2.90;;;12.50;1.00;;;;;;5053671;28;20189;-79
2023/03/25 08:59:16;;;;;;;14.77;3.07;;;12.40;1.00;;;;;;5053709;28;20176;-79
2023/03/25 09:01:42;;;;;;;14.13;3.00;;;12.70;1.80;;;;;;5053495;28;20628;-79
2023/03/25 09:04:11;;;;;;;13.33;3.07;;;13.00;1.00;;;;;;5053119;28;20162;-79
2023/03/25 09:06:38;;;;;;;9.07;3.03;;;13.00;1.00;;;;;;5051726;28;20205;-79
2023/03/25 09:09:05;;;;;;;14.13;3.50;;;13.00;1.00;;;;;;5053532;28;20176;-78
2023/03/25 09:11:31;;;;;;;14.07;3.47;;;13.20;1.00;;;;;;5052955;28;20231;-77
2023/03/25 09:14:03;;;;;;;16.47;4.30;;;13.40;1.00;;;;;;5052927;28;20172;-77
2023/03/25 09:16:33;;;;;;;9.87;3.07;;;13.30;5.00;;;;;;5056905;28;20262;-78
2023/03/25 09:18:59;;;;;;;15.73;3.20;;;12.90;18.90;;;;;;5073887;28;20280;-79
2023/03/25 09:21:25;;;;;;;16.40;3.50;;;12.50;38.00;;;;;;5076198;28;20623;-79
2023/03/25 09:23:51;;;;;;;15.43;3.50;;;12.10;62.40;;;;;;5075200;28;20256;-79
2023/03/25 09:26:16;;;;;;;14.53;3.80;;;11.80;71.60;;;;;;5077227;28;20214;-78
2023/03/25 09:28:42;;;;;;;10.40;3.30;;;12.00;73.50;;;;;;5078055;28;20168;-79
2023/03/25 09:31:16;;;;;;;15.63;3.30;;;12.20;55.80;;;;;;5077680;28;20723;-77
2023/03/25 09:33:41;;;;;;;14.47;3.60;;;12.20;55.40;;;;;;5058029;28;20172;-77
2023/03/25 09:36:10;;;;;;;13.97;3.47;;;12.00;47.00;;;;;;5073738;28;20274;-76
2023/03/25 09:38:36;;;;;;;14.17;3.63;;;11.70;54.90;;;;;;5055090;28;20261;-77
2023/03/25 09:41:17;;;;;;;13.03;3.37;;;11.50;71.20;;;;;;5071957;28;20260;-76
2023/03/25 09:44:12;;;;;;;15.83;3.70;;;11.50;87.80;;;;;;5073083;28;20179;-76
2023/03/25 09:46:39;;;;;;;18.20;3.80;;;11.50;63.50;;;;;;5073307;28;20644;-76
2023/03/25 09:49:13;;;;;;;20.70;3.43;;;11.80;76.70;;;;;;5072668;28;20616;-78
2023/03/25 09:51:40;;;;;;;19.53;3.93;;;12.00;63.40;;;;;;5072937;28;20227;-76
2023/03/25 09:54:35;;;;;;;14.80;3.47;;;12.70;47.10;;;;;;5072264;28;20172;-77
2023/03/25 09:57:05;;;;;;;14.57;3.40;;;13.50;1.00;;;;;;5071978;28;20200;-78
2023/03/25 09:59:45;;;;;;;15.33;3.67;;;14.10;1.00;;;;;;5072585;28;20261;-78
2023/03/25 10:02:25;;;;;;;14.03;3.90;;;14.30;1.00;;;;;;5072818;28;20165;-77
2023/03/25 10:05:02;;;;;;;14.93;3.30;;;13.60;1.00;;;;;;5072595;28;20168;-77
2023/03/25 10:07:31;;;;;;;11.53;3.70;;;13.40;1.00;;;;;;5072256;28;20684;-77
2023/03/25 10:10:08;;;;;;;12.90;3.50;;;13.50;1.00;;;;;;5072473;28;20176;-78
2023/03/25 10:12:52;;;;;;;14.57;3.73;;;13.30;2.50;;;;;;5072798;28;20246;-77
2023/03/25 10:15:20;;;;;;;17.27;4.30;;;13.20;8.90;;;;;;5073052;28;20168;-78
2023/03/25 10:18:17;;;;;;;17.80;4.07;;;13.20;9.20;;;;;;5072213;28;20238;-78
2023/03/25 10:21:00;;;;;;;15.83;3.27;;;13.20;15.10;;;;;;5072377;28;20734;-77
2023/03/25 10:23:40;;;;;;;11.47;3.47;;;13.30;3.00;;;;;;5072623;28;20165;-78
2023/03/25 10:26:18;;;;;;;14.07;3.60;;;13.60;1.00;;;;;;5072608;28;20175;-77
2023/03/25 10:28:53;;;;;;;12.00;2.83;;;13.60;1.00;;;;;;5072245;28;20248;-77
2023/03/25 10:31:24;;;;;;;15.80;3.63;;;13.50;1.00;;;;;;5072320;28;20629;-78
2023/03/25 10:33:56;;;;;;;13.17;3.90;;;13.80;1.00;;;;;;5072285;28;20224;-79
2023/03/25 10:36:35;;;;;;;18.40;3.73;;;13.90;1.00;;;;;;5072494;28;20161;-78
2023/03/25 10:39:03;;;;;;;18.30;4.40;;;14.50;1.00;;;;;;5072222;28;20195;-79
2023/03/25 10:41:37;;;;;;;14.07;3.60;;;15.70;1.00;;;;;;5071973;28;20207;-81
2023/03/25 10:44:08;;;;;;;12.88;3.22;;;16.00;1.00;;;;;;5053872;28;20530;-78
2023/03/25 10:46:45;;;;;;;13.93;3.60;;;16.10;1.00;;;;;;5071865;28;20234;-79
2023/03/25 10:49:18;;;;;;;10.35;3.33;;;16.10;99.90;;;;;;5072346;28;20253;-77
2023/03/25 10:51:45;;;;;;;13.80;3.13;;;16.20;99.90;;;;;;5071516;28;20234;-78
2023/03/25 10:54:13;;;;;;;9.98;3.03;;;16.50;1.00;;;;;;5072154;28;20161;-80
2023/03/25 10:56:54;;;;;;;10.10;3.00;;;16.80;1.00;;;;;;5071721;28;20204;-78
2023/03/25 10:59:54;;;;;;;10.05;3.15;;;17.10;99.90;;;;;;5072159;28;20188;-81
2023/03/25 11:02:27;;;;;;;9.65;2.72;;;17.50;66.90;;;;;;5062473;28;20187;-79
2023/03/25 11:05:17;;;;;;;10.57;3.03;;;17.60;1.00;;;;;;5073788;28;20168;-81
2023/03/25 11:08:11;;;;;;;9.35;3.03;;;17.80;95.40;;;;;;5075295;28;20255;-80
2023/03/25 11:10:39;;;;;;;8.07;2.80;;;18.20;99.90;;;;;;5073391;28;20188;-80
2023/03/25 11:13:11;;;;;;;8.73;3.22;;;17.50;99.90;;;;;;5075189;28;20554;-79
2023/03/25 11:15:39;;;;;;;10.77;3.15;;;16.90;99.90;;;;;;5075610;28;20164;-79
2023/03/25 11:18:11;;;;;;;10.77;2.78;;;16.30;1.00;;;;;;5074921;28;20318;-79
2023/03/25 11:20:40;;;;;;;14.30;3.53;;;15.90;99.90;;;;;;5075122;28;20222;-80
2023/03/25 11:23:13;;;;;;;15.83;3.80;;;15.50;1.00;;;;;;5075276;28;20169;-80
2023/03/25 11:25:40;;;;;;;10.20;3.00;;;14.80;1.00;;;;;;5075357;28;20175;-79
2023/03/25 11:28:20;;;;;;;12.40;3.20;;;14.70;1.00;;;;;;5074330;28;20260;-78
2023/03/25 11:31:19;;;;;;;14.23;3.20;;;14.40;1.00;;;;;;5057933;28;20168;-78
2023/03/25 11:34:02;;;;;;;15.30;3.43;;;13.90;1.00;;;;;;5067485;28;20185;-78
2023/03/25 11:36:30;;;;;;;12.17;3.27;;;13.50;1.00;;;;;;5073922;28;20160;-77
2023/03/25 11:38:59;;;;;;;11.83;3.20;;;13.40;1.00;;;;;;5075371;28;20198;-77
2023/03/25 11:41:30;;;;;;;11.80;3.30;;;12.80;1.00;;;;;;5074543;28;20169;-75
2023/03/25 11:43:56;;;;;;;17.23;3.07;;;12.30;17.90;;;;;;5074926;28;20176;-76
2023/03/25 11:46:22;;;;;;;9.00;2.40;;;11.80;46.90;;;;;;5075221;28;20173;-74
2023/03/25 11:48:51;;;;;;;11.33;2.80;;;11.30;66.80;;;;;;5074225;28;20188;-74
2023/03/25 11:51:23;;;;;;;16.67;2.90;;;10.90;99.90;;;;;;5073802;28;20208;-75
2023/03/25 11:54:06;;;;;;;10.70;2.67;;;10.60;99.90;;;;;;5074340;28;20180;-75
2023/03/25 11:56:40;;;;;;;8.97;2.40;;;10.60;99.90;;;;;;5074116;28;20199;-76
2023/03/25 11:59:16;;;;;;;12.73;2.80;;;10.50;99.90;;;;;;5073681;28;20258;-76
2023/03/25 12:01:47;;;;;;;63.87;44.57;;;10.30;99.90;;;;;;5074644;28;20160;-76
2023/03/25 12:04:22;;;;;;;10.73;4.03;;;10.50;99.90;;;;;;5073904;28;20244;-76
2023/03/25 12:07:05;;;;;;;11.93;2.93;;;10.60;99.90;;;;;;5073892;28;20191;-75
2023/03/25 12:09:34;;;;;;;11.10;3.27;;;10.80;99.90;;;;;;5074493;28;20232;-76
2023/03/25 12:12:15;;;;;;;12.53;3.23;;;11.30;99.90;;;;;;5073882;28;20812;-76
2023/03/25 12:14:46;;;;;;;12.80;2.80;;;11.30;99.90;;;;;;5074013;28;20157;-77
2023/03/25 12:17:28;;;;;;;13.17;2.93;;;11.40;99.90;;;;;;5073633;28;20730;-76
2023/03/25 12:20:19;;;;;;;12.90;3.03;;;11.50;99.90;;;;;;5073298;28;20658;-76
2023/03/25 12:22:56;;;;;;;14.60;3.50;;;11.70;99.90;;;;;;5073981;28;20171;-76
2023/03/25 12:25:45;;;;;;;10.53;2.83;;;11.90;99.90;;;;;;5074764;28;20187;-76
2023/03/25 12:28:19;;;;;;;9.47;2.87;;;11.90;99.90;;;;;;5073772;28;20168;-75
2023/03/25 12:31:16;;;;;;;11.67;2.93;;;12.00;99.90;;;;;;5073751;28;20242;-76
2023/03/25 12:34:08;;;;;;;10.43;3.10;;;12.20;99.90;;;;;;5064798;28;20196;-76
2023/03/25 12:36:52;;;;;;;62.23;40.03;;;12.10;99.90;;;;;;5073659;28;20179;-77
2023/03/25 12:39:31;;;;;;;19.93;9.17;;;12.10;99.90;;;;;;5074067;28;20164;-76
2023/03/25 12:42:12;;;;;;;9.57;3.00;;;12.10;99.90;;;;;;5073025;28;20202;-77
2023/03/25 12:44:59;;;;;;;11.33;2.63;;;12.10;99.90;;;;;;5073334;28;20226;-77
2023/03/25 12:47:30;;;;;;;10.43;2.77;;;11.90;99.90;;;;;;5073757;28;20178;-77
2023/03/25 12:50:30;;;;;;;9.70;2.80;;;11.80;99.90;;;;;;5073144;28;20169;-77
2023/03/25 12:53:15;;;;;;;13.37;2.70;;;11.80;99.90;;;;;;5035938;28;20255;-78
2023/03/25 12:55:53;;;;;;;10.17;2.40;;;12.00;99.90;;;;;;5073510;28;20180;-78
2023/03/25 12:58:39;;;;;;;9.53;2.80;;;12.10;99.90;;;;;;5073555;28;20164;-77
2023/03/25 13:01:11;;;;;;;14.73;3.60;;;12.20;99.90;;;;;;5072599;28;20629;-78
2023/03/25 13:04:08;;;;;;;16.80;4.20;;;12.10;49.00;;;;;;5072856;28;20196;-77
2023/03/25 13:07:07;;;;;;;13.27;3.27;;;12.20;50.70;;;;;;5058255;28;20184;-78
2023/03/25 13:10:18;;;;;;;10.17;2.87;;;12.00;54.00;;;;;;5065686;28;20181;-78
2023/03/25 13:12:59;;;;;;;11.47;2.83;;;11.90;63.20;;;;;;5030829;28;20239;-78